Red Banks, Mississippi
Current Conditions -  °F | °C
As of 12:35 AM on Saturday 29 Nov 2014 (Local Time) from KOLV Reporting Station
Clear Clear  
Wind Chill: 35°   Ceiling: Unl
Heat Index: 41°   Visibility: 10mi
Dew Point: 32°   Wind: 9mph
Humidity: 70%   Direction: 180°S
Pressure: 30.09"   Gusts: NA
Location:  34.83°N, 89.56°W
Report Text: KOLV 290635Z AUTO 18008KT 10SM CLR 05/00 A3009 RMK A01 P000
Loading
Personal Weather Stations






























Interactive Weather Map New forecast layout! Learn more

10-Day Weather Forecast

Advertisements
Track Severe Weather on mobile